Terminal Aerodrome Forecast
Issued by NWS Sterling, VA

Current Version | Previous Version | Graphics & Text | Print | Product List | Glossary On
Versions: 1 2 3 4 5 6 7 8 9 10 11 12 13 14 15 16 17 18 19 20 21 22 23 24 25 26 27 28 29
000
FTUS41 KLWX 292336
TAFIAD
TAF
KIAD 292336Z 3000/3106 17007KT P6SM SCT045
     FM300500 17008KT P6SM BKN045
     FM301100 20009KT 3SM BR BKN150
     FM301400 20009KT P6SM BKN060
     FM301900 28007KT P6SM -SHRA VCTS BKN050CB
     FM302100 32011KT P6SM -SHRA VCTS BKN050CB
     FM302200 32009KT P6SM SCT060
     FM310100 31005KT P6SM FEW150=

USA.gov is the U.S. government's official web portal to all federal, state and local government web resources and services.